Time;durP1;ratioP1;P1;durP2;ratioP2;P2;SDS_P1;SDS_P2;PMS_P1;PMS_P2;Temp;Humidity;BMP_temperature;BMP_pressure;BME280_temperature;BME280_humidity;BME280_pressure;Samples;Min_cycle;Max_cycle;Signal;HPM_P1;HPM_P2
2022/10/24 00:00:07;;;;;;;8.63;2.63;;;17.60;99.90;;;;;;2095174;28;20048;-73
2022/10/24 00:01:13;;;;;;;8.45;2.47;;;17.60;99.90;;;;;;2097580;28;20564;-73
2022/10/24 00:02:14;;;;;;;9.20;2.63;;;17.60;99.90;;;;;;2092405;28;20029;-73
2022/10/24 00:03:15;;;;;;;12.27;2.83;;;17.60;99.90;;;;;;2092828;28;20070;-73
2022/10/24 00:04:15;;;;;;;7.50;2.60;;;17.60;99.90;;;;;;2094090;28;20600;-73
2022/10/24 00:05:16;;;;;;;7.18;2.22;;;17.60;99.90;;;;;;2096218;28;20026;-73
2022/10/24 00:06:17;;;;;;;9.05;2.67;;;17.60;99.90;;;;;;2092898;28;20024;-73
2022/10/24 00:07:18;;;;;;;6.28;2.35;;;17.60;99.90;;;;;;2093952;28;20147;-73
2022/10/24 00:08:18;;;;;;;8.15;2.78;;;17.60;99.90;;;;;;2095023;28;20021;-73
2022/10/24 00:09:19;;;;;;;8.30;2.55;;;17.60;99.90;;;;;;2095919;28;20039;-73
2022/10/24 00:10:20;;;;;;;10.80;3.35;;;17.60;99.90;;;;;;2096256;28;20507;-73
2022/10/24 00:11:24;;;;;;;7.75;3.03;;;17.60;99.90;;;;;;2093066;28;20028;-73
2022/10/24 00:12:25;;;;;;;4.78;2.17;;;17.60;99.90;;;;;;2093732;28;20020;-73
2022/10/24 00:13:25;;;;;;;10.90;2.40;;;17.60;99.90;;;;;;2092370;28;20559;-73
2022/10/24 00:14:27;;;;;;;7.85;2.10;;;17.60;99.90;;;;;;2095057;28;20035;-73
2022/10/24 00:15:27;;;;;;;6.70;2.85;;;17.60;99.90;;;;;;2095127;28;20434;-73
2022/10/24 00:16:28;;;;;;;5.82;2.30;;;17.60;99.90;;;;;;2093882;28;20024;-73
2022/10/24 00:17:29;;;;;;;7.03;2.45;;;17.60;99.90;;;;;;2093326;28;20028;-73
2022/10/24 00:18:29;;;;;;;8.20;2.70;;;17.60;99.90;;;;;;2092365;28;20016;-73
2022/10/24 00:19:30;;;;;;;6.63;2.30;;;17.60;99.90;;;;;;2095476;28;20684;-73
2022/10/24 00:20:30;;;;;;;8.98;2.28;;;17.60;99.90;;;;;;2096669;28;20020;-73
2022/10/24 00:21:31;;;;;;;5.28;2.40;;;17.60;99.90;;;;;;2095558;28;20115;-73
2022/10/24 00:22:31;;;;;;;7.80;2.45;;;17.60;99.90;;;;;;2094834;28;20111;-74
2022/10/24 00:23:32;;;;;;;8.40;2.60;;;17.60;99.90;;;;;;2094090;28;20039;-74
2022/10/24 00:24:33;;;;;;;6.38;2.55;;;17.60;99.90;;;;;;2094037;28;20399;-73
2022/10/24 00:25:34;;;;;;;5.18;2.40;;;17.60;99.90;;;;;;2094657;28;20020;-73
2022/10/24 00:26:35;;;;;;;8.90;3.25;;;17.60;99.90;;;;;;2093112;28;20032;-73
2022/10/24 00:27:35;;;;;;;8.10;2.75;;;17.60;99.90;;;;;;2096823;28;20393;-73
2022/10/24 00:28:37;;;;;;;6.18;2.17;;;17.70;99.90;;;;;;2097386;28;20036;-73
2022/10/24 00:29:37;;;;;;;6.05;3.15;;;17.70;99.90;;;;;;2094045;28;20048;-73
2022/10/24 00:30:38;;;;;;;10.10;2.80;;;17.70;99.90;;;;;;2095368;28;20048;-73
2022/10/24 00:31:39;;;;;;;7.28;2.95;;;17.70;99.90;;;;;;2086653;28;20479;-73
2022/10/24 00:32:39;;;;;;;11.02;2.97;;;17.70;99.90;;;;;;2093961;28;20024;-73
2022/10/24 00:33:41;;;;;;;10.48;3.28;;;17.70;99.90;;;;;;2091623;28;20518;-73
2022/10/24 00:34:42;;;;;;;4.40;2.80;;;17.70;99.90;;;;;;2090002;28;20033;-73
2022/10/24 00:35:42;;;;;;;6.05;2.72;;;17.70;99.90;;;;;;2095828;28;20063;-73
2022/10/24 00:36:43;;;;;;;6.97;2.75;;;17.70;99.90;;;;;;2094206;28;20024;-73
2022/10/24 00:37:44;;;;;;;6.80;2.63;;;17.70;99.90;;;;;;2093992;28;20119;-73
2022/10/24 00:38:45;;;;;;;10.38;3.05;;;17.70;99.90;;;;;;2093741;28;20024;-73
2022/10/24 00:39:45;;;;;;;9.40;2.97;;;17.70;99.90;;;;;;2093778;28;20054;-73
2022/10/24 00:40:46;;;;;;;9.52;2.70;;;17.70;99.90;;;;;;2096741;28;20053;-73
2022/10/24 00:41:46;;;;;;;7.07;2.72;;;17.70;99.90;;;;;;2094428;28;20036;-73
2022/10/24 00:42:48;;;;;;;11.13;3.05;;;17.70;99.90;;;;;;2094145;28;20127;-73
2022/10/24 00:43:48;;;;;;;7.10;2.70;;;17.70;99.90;;;;;;2093524;28;20028;-73
2022/10/24 00:44:52;;;;;;;9.50;2.88;;;17.70;99.90;;;;;;2095547;28;20601;-73
2022/10/24 00:45:55;;;;;;;6.93;3.10;;;17.70;99.90;;;;;;2094262;28;20103;-73
2022/10/24 00:46:58;;;;;;;8.43;2.80;;;17.70;99.90;;;;;;2094518;28;20029;-73
2022/10/24 00:47:59;;;;;;;10.82;3.50;;;17.70;99.90;;;;;;2093064;28;20721;-73
2022/10/24 00:48:59;;;;;;;8.38;3.65;;;17.70;99.90;;;;;;2095508;28;20035;-73
2022/10/24 00:50:12;;;;;;;9.27;3.60;;;17.70;99.90;;;;;;2095830;28;20455;-73
2022/10/24 00:51:20;;;;;;;6.80;2.97;;;17.70;99.90;;;;;;2098167;28;20040;-73
2022/10/24 00:52:25;;;;;;;8.45;2.97;;;17.70;99.90;;;;;;2093082;28;20439;-73
2022/10/24 00:53:27;;;;;;;6.90;2.80;;;17.70;99.90;;;;;;2090224;28;20076;-73
2022/10/24 00:54:28;;;;;;;7.65;2.60;;;17.70;99.90;;;;;;2094873;28;20017;-73
2022/10/24 00:55:29;;;;;;;9.38;3.05;;;17.70;99.90;;;;;;2094396;28;20155;-73
2022/10/24 00:56:33;;;;;;;7.88;3.42;;;17.70;99.90;;;;;;2095339;28;20023;-73
2022/10/24 00:57:43;;;;;;;8.70;2.95;;;17.70;99.90;;;;;;2093597;28;20100;-73
2022/10/24 00:58:44;;;;;;;7.13;3.53;;;17.70;99.90;;;;;;2095270;28;20028;-73
2022/10/24 00:59:48;;;;;;;4.80;3.00;;;17.60;99.90;;;;;;2095506;28;20029;-73
2022/10/24 01:00:49;;;;;;;8.10;3.35;;;17.60;99.90;;;;;;2094714;28;20020;-73
2022/10/24 01:01:49;;;;;;;4.70;2.70;;;17.60;99.90;;;;;;2093587;28;20562;-73
2022/10/24 01:02:50;;;;;;;9.27;2.92;;;17.60;99.90;;;;;;2092589;28;20060;-73
2022/10/24 01:03:51;;;;;;;9.05;2.88;;;17.60;99.90;;;;;;2091283;28;20048;-73
2022/10/24 01:04:53;;;;;;;9.73;3.38;;;17.60;99.90;;;;;;2092635;28;20029;-73
2022/10/24 01:06:20;;;;;;;11.07;3.03;;;17.60;99.90;;;;;;2095118;28;20017;-73
2022/10/24 01:07:50;;;;;;;11.95;3.08;;;17.60;99.90;;;;;;2097082;28;20485;-73
2022/10/24 01:09:10;;;;;;;;;;;17.60;99.90;;;;;;2096570;28;20044;-73
2022/10/24 01:10:24;;;;;;;10.10;3.53;;;17.40;99.90;;;;;;2094596;28;20376;-73
2022/10/24 01:11:45;;;;;;;6.18;2.70;;;17.50;99.90;;;;;;2094758;28;20388;-73
2022/10/24 01:13:08;;;;;;;7.43;2.90;;;17.50;99.90;;;;;;2097230;28;20036;-73
2022/10/24 01:14:27;;;;;;;8.68;2.97;;;17.50;99.90;;;;;;2094703;28;20028;-73
2022/10/24 01:15:46;;;;;;;10.38;3.03;;;17.50;99.90;;;;;;2095101;28;20366;-73
2022/10/24 01:16:48;;;;;;;7.78;2.60;;;17.50;99.90;;;;;;2096914;28;20028;-73
2022/10/24 01:18:40;;;;;;;9.13;2.90;;;17.50;99.90;;;;;;2091785;28;20025;-73
2022/10/24 01:19:52;;;;;;;6.68;2.42;;;17.50;99.90;;;;;;2071455;28;20111;-73
2022/10/24 01:21:23;;;;;;;8.63;2.20;;;17.50;99.90;;;;;;2094321;28;20040;-73
2022/10/24 01:22:49;;;;;;;7.55;2.50;;;17.50;99.90;;;;;;2094886;28;20035;-73
2022/10/24 01:24:17;;;;;;;5.90;2.85;;;17.50;99.90;;;;;;2086611;28;20029;-74
2022/10/24 01:25:37;;;;;;;6.70;2.72;;;17.50;99.90;;;;;;2094161;28;20017;-73
2022/10/24 01:26:58;;;;;;;7.40;3.20;;;17.50;99.90;;;;;;2097931;28;20031;-73
2022/10/24 01:28:17;;;;;;;8.25;2.10;;;17.50;99.90;;;;;;2094390;28;20412;-73
2022/10/24 01:29:43;;;;;;;6.22;2.05;;;17.50;99.90;;;;;;2094113;28;20048;-73
2022/10/24 01:30:51;;;;;;;6.05;2.25;;;17.50;99.90;;;;;;2094608;28;20024;-73
2022/10/24 01:32:05;;;;;;;7.05;2.30;;;17.50;99.90;;;;;;2095573;28;20036;-73
2022/10/24 01:33:15;;;;;;;7.45;2.25;;;17.60;99.90;;;;;;2094092;28;20020;-73
2022/10/24 01:34:29;;;;;;;4.65;2.13;;;17.60;99.90;;;;;;2096536;28;20399;-73
2022/10/24 01:35:46;;;;;;;7.60;2.75;;;17.60;99.90;;;;;;2095493;28;20028;-73
2022/10/24 01:36:57;;;;;;;3.00;2.42;;;17.60;99.90;;;;;;2095616;28;20094;-73
2022/10/24 01:38:00;;;;;;;10.30;2.22;;;17.60;99.90;;;;;;2094482;28;20027;-73
2022/10/24 01:39:07;;;;;;;4.82;2.20;;;17.60;99.90;;;;;;2095599;28;20547;-73
2022/10/24 01:40:13;;;;;;;9.43;3.42;;;17.60;99.90;;;;;;2094968;28;20453;-73
2022/10/24 01:41:20;;;;;;;2.90;2.00;;;17.60;99.90;;;;;;2096165;28;20025;-73
2022/10/24 01:42:22;;;;;;;9.27;2.72;;;17.60;99.90;;;;;;2095984;28;20025;-73
2022/10/24 01:43:30;;;;;;;7.43;2.53;;;17.60;99.90;;;;;;2094581;28;20107;-73
2022/10/24 01:44:40;;;;;;;9.77;2.88;;;17.60;99.90;;;;;;2092910;28;20613;-73
2022/10/24 01:45:44;;;;;;;6.55;2.55;;;17.70;99.90;;;;;;2086535;28;20114;-73
2022/10/24 01:47:06;;;;;;;7.30;2.05;;;17.60;99.90;;;;;;2092675;28;20051;-73
2022/10/24 01:48:14;;;;;;;6.25;2.75;;;17.70;99.90;;;;;;2094468;28;20053;-73
2022/10/24 01:49:21;;;;;;;8.75;2.65;;;17.70;99.90;;;;;;2095573;28;20021;-73
2022/10/24 01:50:25;;;;;;;3.95;2.30;;;17.70;99.90;;;;;;2096055;28;20021;-73
2022/10/24 01:51:28;;;;;;;7.55;2.30;;;17.70;99.90;;;;;;2095448;28;20066;-73
2022/10/24 01:52:33;;;;;;;5.55;2.10;;;17.70;99.90;;;;;;2095026;28;20671;-73
2022/10/24 01:53:35;;;;;;;4.60;2.00;;;17.70;99.90;;;;;;2102521;28;20020;-73
2022/10/24 01:54:38;;;;;;;6.25;2.15;;;17.70;99.90;;;;;;2100251;28;20069;-73
2022/10/24 01:55:40;;;;;;;4.97;2.05;;;17.80;99.90;;;;;;2099109;28;20025;-73
2022/10/24 01:56:40;;;;;;;4.28;1.90;;;17.80;99.90;;;;;;2094401;28;20067;-73
2022/10/24 01:57:41;;;;;;;9.73;2.33;;;17.80;99.90;;;;;;2096704;28;20032;-74
2022/10/24 01:58:42;;;;;;;5.55;2.20;;;17.80;99.90;;;;;;2094557;28;20025;-73
2022/10/24 01:59:48;;;;;;;7.55;2.50;;;17.80;99.90;;;;;;2090378;28;20029;-73
2022/10/24 02:00:51;;;;;;;6.22;2.33;;;17.80;99.90;;;;;;2095819;28;20091;-72
2022/10/24 02:02:05;;;;;;;5.90;1.90;;;17.80;99.90;;;;;;2094180;28;20024;-73
2022/10/24 02:03:23;;;;;;;5.00;2.08;;;17.90;99.90;;;;;;2093663;28;20020;-73
2022/10/24 02:04:27;;;;;;;6.75;2.78;;;17.80;99.90;;;;;;2093330;28;20025;-73
2022/10/24 02:05:33;;;;;;;6.40;1.95;;;17.80;99.90;;;;;;2094879;28;20016;-73
2022/10/24 02:06:40;;;;;;;5.60;3.00;;;17.80;99.90;;;;;;2095290;28;20095;-74
2022/10/24 02:07:44;;;;;;;6.60;2.50;;;17.90;99.90;;;;;;2095963;28;20056;-73
2022/10/24 02:08:50;;;;;;;5.63;1.95;;;17.80;99.90;;;;;;2095787;28;20021;-73
2022/10/24 02:09:56;;;;;;;4.63;2.03;;;17.90;99.90;;;;;;2094634;28;20021;-73
2022/10/24 02:11:02;;;;;;;7.13;2.47;;;17.80;99.90;;;;;;2095277;28;20476;-73
2022/10/24 02:12:06;;;;;;;4.43;2.53;;;17.90;99.90;;;;;;2095016;28;20060;-73
2022/10/24 02:13:16;;;;;;;9.57;2.80;;;17.90;99.90;;;;;;2092133;28;20017;-73
2022/10/24 02:14:38;;;;;;;4.70;2.33;;;17.90;99.90;;;;;;2093544;28;20021;-73
2022/10/24 02:15:45;;;;;;;10.30;2.25;;;17.90;99.90;;;;;;2094425;28;20388;-73
2022/10/24 02:16:46;;;;;;;5.28;2.08;;;17.90;99.90;;;;;;2092919;28;20579;-73
2022/10/24 02:17:47;;;;;;;6.10;2.15;;;17.90;99.90;;;;;;2094471;28;20025;-73
2022/10/24 02:18:51;;;;;;;6.95;2.30;;;17.90;99.90;;;;;;2097240;28;20070;-73
2022/10/24 02:19:52;;;;;;;5.22;1.90;;;17.90;99.90;;;;;;2095874;28;20119;-73
2022/10/24 02:21:30;;;;;;;7.75;2.42;;;17.90;99.90;;;;;;2094760;28;20024;-73
2022/10/24 02:22:41;;;;;;;7.82;2.42;;;17.90;99.90;;;;;;2094541;28;20082;-73
2022/10/24 02:23:45;;;;;;;;;;;17.90;99.90;;;;;;2094836;28;20036;-73
2022/10/24 02:25:13;;;;;;;6.93;2.13;;;17.80;99.90;;;;;;2094495;28;19962;-73
2022/10/24 02:26:31;;;;;;;9.25;2.47;;;17.90;99.90;;;;;;2080693;28;20044;-73
2022/10/24 02:27:42;;;;;;;6.80;2.00;;;17.90;99.90;;;;;;2093118;28;20472;-73
2022/10/24 02:28:46;;;;;;;7.85;2.70;;;17.90;99.90;;;;;;2094705;28;20047;-73
2022/10/24 02:29:50;;;;;;;7.00;2.50;;;17.90;99.90;;;;;;2094039;28;20032;-73
2022/10/24 02:30:59;;;;;;;8.30;2.33;;;17.90;99.90;;;;;;2096852;28;20498;-73
2022/10/24 02:32:04;;;;;;;7.72;2.22;;;18.00;99.90;;;;;;2090921;28;20039;-73
2022/10/24 02:33:05;;;;;;;7.30;2.05;;;17.90;99.90;;;;;;2093157;28;20028;-73
2022/10/24 02:34:08;;;;;;;6.03;2.22;;;17.90;99.90;;;;;;2091658;28;20029;-73
2022/10/24 02:35:11;;;;;;;5.45;1.92;;;18.00;99.90;;;;;;2095904;28;20050;-73
2022/10/24 02:36:15;;;;;;;7.50;2.40;;;18.00;99.90;;;;;;2093819;28;20058;-74
2022/10/24 02:37:17;;;;;;;7.72;2.40;;;18.00;99.90;;;;;;2094576;28;20048;-73
2022/10/24 02:38:25;;;;;;;7.57;1.98;;;18.00;99.90;;;;;;2094584;28;20024;-73
2022/10/24 02:39:27;;;;;;;4.53;2.50;;;18.00;99.90;;;;;;2097519;28;20099;-73
2022/10/24 02:40:28;;;;;;;6.15;2.58;;;18.00;99.90;;;;;;2095866;28;20527;-73
2022/10/24 02:41:34;;;;;;;7.68;2.35;;;18.00;99.90;;;;;;2095923;28;20034;-73
2022/10/24 02:42:37;;;;;;;4.70;2.05;;;18.00;99.90;;;;;;2093860;28;20025;-73
2022/10/24 02:43:39;;;;;;;5.18;2.22;;;18.00;99.90;;;;;;2094756;28;20020;-73
2022/10/24 02:44:42;;;;;;;8.50;2.30;;;18.00;99.90;;;;;;2096944;28;20078;-73
2022/10/24 02:45:43;;;;;;;8.13;2.78;;;18.00;99.90;;;;;;2095058;28;20551;-73
2022/10/24 02:46:45;;;;;;;5.75;2.13;;;18.00;99.90;;;;;;2095611;28;20142;-73
2022/10/24 02:47:47;;;;;;;6.05;2.15;;;18.00;99.90;;;;;;2096471;28;20025;-73
2022/10/24 02:48:56;;;;;;;3.85;2.17;;;18.00;99.90;;;;;;2096489;28;20029;-73
2022/10/24 02:49:56;;;;;;;5.55;2.25;;;18.10;99.90;;;;;;2096592;28;20048;-73
2022/10/24 02:50:57;;;;;;;9.10;2.38;;;18.00;99.90;;;;;;2095361;28;20110;-74
2022/10/24 02:51:59;;;;;;;5.55;1.90;;;18.00;99.90;;;;;;2094023;28;20040;-73
2022/10/24 02:52:59;;;;;;;4.55;1.65;;;18.00;99.90;;;;;;2092824;28;20090;-73
2022/10/24 02:54:01;;;;;;;3.72;2.13;;;18.00;99.90;;;;;;2094678;28;20127;-73
2022/10/24 02:55:02;;;;;;;5.45;1.90;;;18.00;99.90;;;;;;2095979;28;20386;-73
2022/10/24 02:56:02;;;;;;;8.25;1.80;;;18.00;99.90;;;;;;2093248;28;20056;-73
2022/10/24 02:57:03;;;;;;;6.30;2.17;;;18.00;99.90;;;;;;2094602;28;20021;-73
2022/10/24 02:58:04;;;;;;;4.25;1.98;;;18.00;99.90;;;;;;2095490;28;20074;-73
2022/10/24 02:59:04;;;;;;;4.50;2.15;;;18.00;99.90;;;;;;2099905;28;20076;-73
2022/10/24 03:00:06;;;;;;;5.28;1.70;;;18.00;99.90;;;;;;2097878;28;20020;-73
2022/10/24 03:01:07;;;;;;;3.75;1.63;;;18.00;99.90;;;;;;2096394;28;20024;-74
2022/10/24 03:02:08;;;;;;;6.03;1.73;;;18.00;99.90;;;;;;2097999;28;20036;-74
2022/10/24 03:03:08;;;;;;;5.85;1.77;;;18.00;99.90;;;;;;2092632;28;20013;-74
2022/10/24 03:04:09;;;;;;;6.53;2.20;;;18.00;99.90;;;;;;2093275;28;20025;-73
2022/10/24 03:05:09;;;;;;;6.22;2.28;;;18.00;99.90;;;;;;2093973;28;20036;-73
2022/10/24 03:06:11;;;;;;;4.93;1.95;;;18.00;99.90;;;;;;2094248;28;20112;-73
2022/10/24 03:07:11;;;;;;;6.40;2.10;;;18.00;99.90;;;;;;2095098;28;20036;-73
2022/10/24 03:08:12;;;;;;;4.53;2.25;;;18.00;99.90;;;;;;2095718;28;20064;-73
2022/10/24 03:09:12;;;;;;;7.90;1.60;;;18.00;99.90;;;;;;2094867;28;20408;-73
2022/10/24 03:10:13;;;;;;;3.85;1.52;;;18.00;99.90;;;;;;2094859;28;20088;-73
2022/10/24 03:11:14;;;;;;;5.15;1.55;;;18.10;99.90;;;;;;2094343;28;20024;-73
2022/10/24 03:12:15;;;;;;;5.78;1.88;;;18.10;99.90;;;;;;2093355;28;20112;-73
2022/10/24 03:13:16;;;;;;;4.90;1.77;;;18.10;99.90;;;;;;2092520;28;20081;-73
2022/10/24 03:14:16;;;;;;;4.40;2.00;;;18.10;99.90;;;;;;2096777;28;20021;-73
2022/10/24 03:15:17;;;;;;;9.88;1.90;;;18.10;99.90;;;;;;2095413;28;20027;-73
2022/10/24 03:16:17;;;;;;;5.90;2.33;;;18.10;99.90;;;;;;2095096;28;20044;-73
2022/10/24 03:17:18;;;;;;;10.18;1.83;;;18.10;99.90;;;;;;2094867;28;20028;-73
2022/10/24 03:18:19;;;;;;;6.43;1.85;;;18.10;99.90;;;;;;2093148;28;20099;-73
2022/10/24 03:19:19;;;;;;;4.95;1.63;;;18.10;99.90;;;;;;2096262;28;20054;-73
2022/10/24 03:20:20;;;;;;;6.95;2.33;;;18.10;99.90;;;;;;2095132;28;20024;-73
2022/10/24 03:21:20;;;;;;;7.35;2.22;;;18.10;99.90;;;;;;2095185;28;20021;-74
2022/10/24 03:22:21;;;;;;;9.80;2.20;;;18.10;99.90;;;;;;2094723;28;20095;-73
2022/10/24 03:23:23;;;;;;;5.78;2.05;;;18.10;99.90;;;;;;2093747;28;20563;-73
2022/10/24 03:24:23;;;;;;;5.93;2.42;;;18.10;99.90;;;;;;2094533;28;20017;-73
2022/10/24 03:25:24;;;;;;;7.40;1.83;;;18.10;99.90;;;;;;2096121;28;20028;-73
2022/10/24 03:26:24;;;;;;;8.35;1.60;;;18.10;99.90;;;;;;2095641;28;20016;-73
2022/10/24 03:27:25;;;;;;;7.90;2.70;;;18.10;99.90;;;;;;2096938;28;20052;-73
2022/10/24 03:28:26;;;;;;;6.13;1.77;;;18.10;99.90;;;;;;2098344;28;20098;-73
2022/10/24 03:29:26;;;;;;;3.33;1.65;;;18.10;99.90;;;;;;2094934;28;20048;-73
2022/10/24 03:30:27;;;;;;;5.32;1.70;;;18.10;99.90;;;;;;2094497;28;20033;-73
2022/10/24 03:31:29;;;;;;;6.95;2.17;;;18.10;99.90;;;;;;2092466;28;20108;-73
2022/10/24 03:32:30;;;;;;;7.20;2.10;;;18.10;99.90;;;;;;2092323;28;20028;-73
2022/10/24 03:33:30;;;;;;;5.95;2.10;;;18.10;99.90;;;;;;2094483;28;20032;-73
2022/10/24 03:34:32;;;;;;;5.65;1.48;;;18.10;99.90;;;;;;2093833;28;20033;-73
2022/10/24 03:35:33;;;;;;;6.20;1.92;;;18.10;99.90;;;;;;2094441;28;20119;-73
2022/10/24 03:36:34;;;;;;;5.95;2.58;;;18.10;99.90;;;;;;2091153;28;20044;-74
2022/10/24 03:37:34;;;;;;;8.88;2.33;;;18.10;99.90;;;;;;2094339;28;20028;-74
2022/10/24 03:38:35;;;;;;;3.17;1.77;;;18.10;99.90;;;;;;2094671;28;20035;-74
2022/10/24 03:39:35;;;;;;;5.25;1.75;;;18.20;99.90;;;;;;2096047;28;20020;-73
2022/10/24 03:40:36;;;;;;;4.82;1.77;;;18.10;99.90;;;;;;2094285;28;20589;-74
2022/10/24 03:41:37;;;;;;;5.72;2.05;;;18.10;99.90;;;;;;2092841;28;20024;-73
2022/10/24 03:42:38;;;;;;;6.20;2.40;;;18.10;99.90;;;;;;2093374;28;20024;-73
2022/10/24 03:43:38;;;;;;;8.95;2.28;;;18.10;99.90;;;;;;2094544;28;20028;-73
2022/10/24 03:44:39;;;;;;;4.63;2.10;;;18.10;99.90;;;;;;2094827;28;20032;-73
2022/10/24 03:45:40;;;;;;;7.68;1.95;;;18.10;99.90;;;;;;2093642;28;20025;-73
2022/10/24 03:46:40;;;;;;;6.05;2.13;;;18.10;99.90;;;;;;2091566;28;20032;-73
2022/10/24 03:47:41;;;;;;;7.38;2.15;;;18.10;99.90;;;;;;2096884;28;20032;-73
2022/10/24 03:48:41;;;;;;;5.43;2.05;;;18.10;99.90;;;;;;2085395;28;20025;-73
2022/10/24 03:49:42;;;;;;;7.82;2.42;;;18.20;99.90;;;;;;2095329;28;20578;-74
2022/10/24 03:50:42;;;;;;;9.38;2.05;;;18.10;99.90;;;;;;2093279;28;20556;-73
2022/10/24 03:51:43;;;;;;;4.90;1.83;;;18.10;99.90;;;;;;2095370;28;20048;-73
2022/10/24 03:52:44;;;;;;;8.20;2.38;;;18.10;99.90;;;;;;2092716;28;20024;-73
2022/10/24 03:53:44;;;;;;;9.02;2.70;;;18.10;99.90;;;;;;2093074;28;20033;-73
2022/10/24 03:54:45;;;;;;;6.85;1.77;;;18.10;99.90;;;;;;2096430;28;20020;-73
2022/10/24 03:55:45;;;;;;;7.13;2.53;;;18.10;99.90;;;;;;2094569;28;20399;-73
2022/10/24 03:56:49;;;;;;;6.78;1.77;;;18.10;99.90;;;;;;2097824;28;20566;-74
2022/10/24 03:57:49;;;;;;;11.35;2.05;;;18.10;99.90;;;;;;2093970;28;20052;-73
2022/10/24 03:58:50;;;;;;;4.05;1.85;;;18.20;99.90;;;;;;2093731;28;20131;-73
2022/10/24 03:59:50;;;;;;;5.47;2.30;;;18.10;99.90;;;;;;2093948;28;20017;-73
2022/10/24 04:00:51;;;;;;;5.07;1.92;;;18.10;99.90;;;;;;2091292;28;20420;-73
2022/10/24 04:01:52;;;;;;;8.02;2.00;;;18.10;99.90;;;;;;2093792;28;20232;-73
2022/10/24 04:02:52;;;;;;;10.00;2.35;;;18.10;99.90;;;;;;2101708;28;20042;-73
2022/10/24 04:03:53;;;;;;;5.30;1.80;;;18.20;99.90;;;;;;2093315;28;20036;-73
2022/10/24 04:04:53;;;;;;;6.13;2.03;;;18.10;99.90;;;;;;2093233;28;20036;-73
2022/10/24 04:05:54;;;;;;;9.80;2.00;;;18.10;99.90;;;;;;2092184;28;20065;-73
2022/10/24 04:06:55;;;;;;;9.27;2.30;;;18.10;99.90;;;;;;2094292;28;20025;-73
2022/10/24 04:07:55;;;;;;;7.75;2.47;;;18.10;99.90;;;;;;2093073;28;20032;-73
2022/10/24 04:08:56;;;;;;;6.55;2.03;;;18.20;99.90;;;;;;2093117;28;20457;-73
2022/10/24 04:09:57;;;;;;;8.35;1.92;;;18.10;99.90;;;;;;2093468;28;20024;-73
2022/10/24 04:10:57;;;;;;;5.15;1.90;;;18.10;99.90;;;;;;2092737;28;20025;-73
2022/10/24 04:11:58;;;;;;;7.47;2.50;;;18.10;99.90;;;;;;2092359;28;20029;-73
2022/10/24 04:12:58;;;;;;;7.38;1.67;;;18.20;99.90;;;;;;2093242;28;20059;-73
2022/10/24 04:14:02;;;;;;;5.97;2.30;;;18.10;99.90;;;;;;2094343;28;20079;-73
2022/10/24 04:15:04;;;;;;;6.70;2.20;;;18.20;99.90;;;;;;2095374;28;20048;-73
2022/10/24 04:16:04;;;;;;;7.20;2.10;;;18.10;99.90;;;;;;2092868;28;20024;-74
2022/10/24 04:17:05;;;;;;;6.53;2.28;;;18.10;99.90;;;;;;2093136;28;20016;-73
2022/10/24 04:18:07;;;;;;;6.93;2.58;;;18.10;99.90;;;;;;2087366;28;20025;-73
2022/10/24 04:19:09;;;;;;;10.93;2.35;;;18.10;99.90;;;;;;2094757;28;20817;-73
2022/10/24 04:20:10;;;;;;;8.25;2.00;;;18.10;99.90;;;;;;2094509;28;20020;-73
2022/10/24 04:21:10;;;;;;;3.90;2.28;;;18.10;99.90;;;;;;2095495;28;20025;-73
2022/10/24 04:22:11;;;;;;;7.00;1.98;;;18.10;99.90;;;;;;2095072;28;20115;-73
2022/10/24 04:23:11;;;;;;;8.88;2.15;;;18.10;99.90;;;;;;2093772;28;20289;-73
2022/10/24 04:24:13;;;;;;;5.43;2.05;;;18.10;99.90;;;;;;2092948;28;20505;-74
2022/10/24 04:25:15;;;;;;;9.50;2.53;;;18.10;99.90;;;;;;2094665;28;20613;-73
2022/10/24 04:26:16;;;;;;;6.82;1.95;;;18.10;99.90;;;;;;2094639;28;20033;-73
2022/10/24 04:27:17;;;;;;;10.60;2.05;;;18.10;99.90;;;;;;2094169;28;20589;-73
2022/10/24 04:28:17;;;;;;;9.32;1.95;;;18.10;99.90;;;;;;2093252;28;20384;-73
2022/10/24 04:29:18;;;;;;;6.15;1.90;;;18.10;99.90;;;;;;2095311;28;20641;-73
2022/10/24 04:30:19;;;;;;;5.43;1.80;;;18.10;99.90;;;;;;2097711;28;20025;-73
2022/10/24 04:31:19;;;;;;;6.13;2.00;;;18.10;99.90;;;;;;2096402;28;20063;-73
2022/10/24 04:32:20;;;;;;;6.38;1.90;;;18.00;99.90;;;;;;2093221;28;20035;-73
2022/10/24 04:33:20;;;;;;;4.45;1.90;;;18.10;99.90;;;;;;2094101;28;20464;-73
2022/10/24 04:34:21;;;;;;;5.07;2.08;;;18.00;99.90;;;;;;2092686;28;20036;-73
2022/10/24 04:35:22;;;;;;;6.78;2.17;;;18.00;99.90;;;;;;2095947;28;20517;-73
2022/10/24 04:36:23;;;;;;;7.55;1.90;;;18.00;99.90;;;;;;2095412;28;20379;-73
2022/10/24 04:37:23;;;;;;;5.10;2.03;;;18.00;99.90;;;;;;2094918;28;20021;-74
2022/10/24 04:38:24;;;;;;;10.88;2.15;;;18.00;99.90;;;;;;2091733;28;20025;-74
2022/10/24 04:39:24;;;;;;;6.07;1.88;;;18.00;99.90;;;;;;2092524;28;20031;-73
2022/10/24 04:40:25;;;;;;;7.13;1.65;;;18.00;99.90;;;;;;2093143;28;20036;-73
2022/10/24 04:41:25;;;;;;;7.32;2.15;;;18.00;99.90;;;;;;2093688;28;20104;-73
2022/10/24 04:42:26;;;;;;;5.72;2.42;;;18.00;99.90;;;;;;2093024;28;20025;-73
2022/10/24 04:43:27;;;;;;;4.40;1.90;;;18.00;99.90;;;;;;2092385;28;20024;-73
2022/10/24 04:44:27;;;;;;;5.93;2.00;;;18.00;99.90;;;;;;2092114;28;20059;-73
2022/10/24 04:45:28;;;;;;;5.35;1.90;;;18.00;99.90;;;;;;2093447;28;20213;-73
2022/10/24 04:46:28;;;;;;;12.77;2.28;;;18.00;99.90;;;;;;2094858;28;20036;-73
2022/10/24 04:47:29;;;;;;;8.32;2.05;;;18.00;99.90;;;;;;2093822;28;20116;-73
2022/10/24 04:48:29;;;;;;;4.88;1.95;;;18.00;99.90;;;;;;2095306;28;20084;-73
2022/10/24 04:49:30;;;;;;;8.23;1.73;;;18.00;99.90;;;;;;2096310;28;20112;-73
2022/10/24 04:50:30;;;;;;;5.82;2.00;;;18.00;99.90;;;;;;2093264;28;20036;-73
2022/10/24 04:51:31;;;;;;;8.57;1.83;;;18.00;99.90;;;;;;2094131;28;20032;-73
2022/10/24 04:52:31;;;;;;;4.60;2.17;;;18.00;99.90;;;;;;2094905;28;20016;-73
2022/10/24 04:53:32;;;;;;;3.95;1.77;;;17.90;99.90;;;;;;2093556;28;20087;-73
2022/10/24 04:54:32;;;;;;;6.97;2.13;;;18.00;99.90;;;;;;2095203;28;20513;-73
2022/10/24 04:55:33;;;;;;;4.85;1.48;;;17.90;99.90;;;;;;2094870;28;20486;-73
2022/10/24 04:56:34;;;;;;;4.78;1.90;;;17.90;99.90;;;;;;2094662;28;20059;-73
2022/10/24 04:57:34;;;;;;;4.97;1.92;;;17.90;99.90;;;;;;2094448;28;20017;-73
2022/10/24 04:58:35;;;;;;;7.40;2.05;;;17.90;99.90;;;;;;2094672;28;20025;-74
2022/10/24 04:59:35;;;;;;;8.82;2.25;;;17.90;99.90;;;;;;2095695;28;20016;-73
2022/10/24 05:00:36;;;;;;;6.00;2.00;;;17.90;99.90;;;;;;2097817;28;20020;-73
2022/10/24 05:01:36;;;;;;;4.25;1.70;;;17.90;99.90;;;;;;2096031;28;20056;-73
2022/10/24 05:02:37;;;;;;;10.70;2.38;;;17.90;99.90;;;;;;2096175;28;20032;-73
2022/10/24 05:03:38;;;;;;;8.40;2.72;;;17.90;99.90;;;;;;2095811;28;20025;-73
2022/10/24 05:04:38;;;;;;;6.40;1.67;;;17.90;99.90;;;;;;2094387;28;20083;-73
2022/10/24 05:05:39;;;;;;;5.90;1.95;;;17.90;99.90;;;;;;2091590;28;20025;-73
2022/10/24 05:06:39;;;;;;;4.88;1.77;;;17.90;99.90;;;;;;2092182;28;20079;-73
2022/10/24 05:07:40;;;;;;;4.40;1.85;;;17.90;99.90;;;;;;2095344;28;20032;-73
2022/10/24 05:08:40;;;;;;;6.22;2.40;;;17.90;99.90;;;;;;2100052;28;20093;-73
2022/10/24 05:09:41;;;;;;;5.80;1.83;;;17.90;99.90;;;;;;2100796;28;20050;-73
2022/10/24 05:10:42;;;;;;;4.30;1.75;;;17.80;99.90;;;;;;2094079;28;20078;-73
2022/10/24 05:11:42;;;;;;;3.60;1.70;;;17.80;99.90;;;;;;2093308;28;20076;-73
2022/10/24 05:12:43;;;;;;;5.15;1.73;;;17.80;99.90;;;;;;2092274;28;20040;-74
2022/10/24 05:13:43;;;;;;;6.55;1.98;;;17.80;99.90;;;;;;2093409;28;20037;-73
2022/10/24 05:14:46;;;;;;;5.10;1.73;;;17.80;99.90;;;;;;2094169;28;20162;-74
2022/10/24 05:15:46;;;;;;;4.28;1.73;;;17.80;99.90;;;;;;2094386;28;20028;-73
2022/10/24 05:16:48;;;;;;;5.78;1.83;;;17.80;99.90;;;;;;2096398;28;20099;-73
2022/10/24 05:17:48;;;;;;;4.28;1.52;;;17.80;99.90;;;;;;2094229;28;21243;-73
2022/10/24 05:18:49;;;;;;;4.30;1.80;;;17.80;99.90;;;;;;2093275;28;20025;-73
2022/10/24 05:19:49;;;;;;;6.65;1.67;;;17.80;99.90;;;;;;2091960;28;20107;-73
2022/10/24 05:20:54;;;;;;;5.07;1.95;;;17.80;99.90;;;;;;2093421;28;20032;-74
2022/10/24 05:21:54;;;;;;;5.95;1.58;;;17.80;99.90;;;;;;2092585;28;20623;-73
2022/10/24 05:22:55;;;;;;;5.82;1.85;;;17.80;99.90;;;;;;2094488;28;20375;-73
2022/10/24 05:23:55;;;;;;;4.07;1.70;;;17.80;99.90;;;;;;2094353;28;20028;-73
2022/10/24 05:24:56;;;;;;;4.68;1.85;;;17.80;99.90;;;;;;2096000;28;20039;-73
2022/10/24 05:25:56;;;;;;;6.55;2.00;;;17.80;99.90;;;;;;2093851;28;20033;-73
2022/10/24 05:26:57;;;;;;;4.97;1.80;;;17.80;99.90;;;;;;2093680;28;20606;-73
2022/10/24 05:27:58;;;;;;;8.05;1.85;;;17.80;99.90;;;;;;2093981;28;20051;-73
2022/10/24 05:28:58;;;;;;;4.07;1.75;;;17.80;99.90;;;;;;2092997;28;20028;-74
2022/10/24 05:29:59;;;;;;;5.05;1.60;;;17.80;99.90;;;;;;2096390;28;20051;-74